Time;durP1;ratioP1;P1;durP2;ratioP2;P2;SDS_P1;SDS_P2;PMS_P1;PMS_P2;Temp;Humidity;BMP_temperature;BMP_pressure;BME280_temperature;BME280_humidity;BME280_pressure;Samples;Min_cycle;Max_cycle;Signal;HPM_P1;HPM_P2
2021/08/23 00:02:02;;;;;;;13.23;5.27;;;;;;;18.14;83.38;100241.58;125805;1092;22805;-62
2021/08/23 00:04:33;;;;;;;12.30;3.90;;;;;;;18.13;83.50;100225.91;125772;1093;22854;-63
2021/08/23 00:07:06;;;;;;;16.73;4.60;;;;;;;18.14;83.29;100215.38;125969;1093;22797;-62
2021/08/23 00:09:38;;;;;;;12.45;4.60;;;;;;;18.14;83.45;100212.55;125872;1093;23550;-63
2021/08/23 00:12:10;;;;;;;12.93;4.83;;;;;;;18.12;83.62;100215.92;125801;1093;22780;-63
2021/08/23 00:14:43;;;;;;;12.67;5.63;;;;;;;18.11;83.51;100230.55;126039;1093;26252;-63
2021/08/23 00:17:15;;;;;;;13.37;5.67;;;;;;;18.10;83.55;100232.64;125771;1093;24589;-62
2021/08/23 00:19:46;;;;;;;13.63;5.07;;;;;;;18.09;83.53;100225.45;125775;1092;22800;-65
2021/08/23 00:22:28;;;;;;;11.53;5.20;;;;;;;18.09;83.63;100228.27;125746;1093;24615;-64
2021/08/23 00:25:01;;;;;;;13.03;4.88;;;;;;;18.08;83.63;100232.41;125913;1093;22807;-62
2021/08/23 00:27:33;;;;;;;12.40;4.97;;;;;;;18.09;83.78;100242.39;125948;1093;22770;-63
2021/08/23 00:30:08;;;;;;;13.00;5.43;;;;;;;18.08;83.55;100235.23;125762;1093;22797;-63
2021/08/23 00:32:42;;;;;;;10.93;4.70;;;;;;;18.08;83.81;100214.69;125846;1093;26313;-63
2021/08/23 00:35:15;;;;;;;12.77;4.93;;;;;;;18.07;83.85;100213.91;125776;1092;22778;-63
2021/08/23 00:37:47;;;;;;;13.47;4.97;;;;;;;18.07;84.08;100219.56;125833;1093;26261;-63
2021/08/23 00:40:21;;;;;;;13.67;4.97;;;;;;;18.07;83.87;100222.39;125932;1093;22797;-63
2021/08/23 00:42:54;;;;;;;11.47;5.23;;;;;;;18.06;84.08;100220.88;125850;1093;22767;-64
2021/08/23 00:45:25;;;;;;;15.43;5.27;;;;;;;18.06;84.06;100222.92;125808;1093;22775;-63
2021/08/23 00:47:57;;;;;;;14.23;4.87;;;;;;;18.06;84.00;100211.63;125728;1092;22774;-63
2021/08/23 00:50:30;;;;;;;11.40;5.08;;;;;;;18.04;84.19;100200.87;125866;1093;22767;-64
2021/08/23 00:53:02;;;;;;;10.67;4.70;;;;;;;18.03;84.20;100193.67;125771;1093;22770;-64
2021/08/23 00:55:34;;;;;;;12.97;5.37;;;;;;;18.03;84.21;100201.38;125876;1093;22800;-63
2021/08/23 00:58:05;;;;;;;15.35;5.33;;;;;;;18.02;84.09;100189.30;126068;1092;22826;-65
2021/08/23 01:00:41;;;;;;;11.75;4.70;;;;;;;18.01;84.25;100187.02;125750;1092;22767;-63
2021/08/23 01:03:20;;;;;;;10.17;5.03;;;;;;;18.01;84.20;100189.84;125846;1093;24471;-63
2021/08/23 01:05:52;;;;;;;12.80;5.33;;;;;;;18.00;84.24;100177.03;125828;1093;23503;-63
2021/08/23 01:08:33;;;;;;;12.30;5.50;;;;;;;18.01;84.25;100170.07;125750;1093;23735;-62
2021/08/23 01:11:07;;;;;;;11.80;4.67;;;;;;;18.00;84.34;100171.38;125934;1093;22825;-63
2021/08/23 01:13:41;;;;;;;12.30;5.48;;;;;;;18.00;84.58;100174.95;126095;1093;22797;-62
2021/08/23 01:16:13;;;;;;;12.13;5.78;;;;;;;18.00;84.48;100185.51;125851;1093;22794;-64
2021/08/23 01:18:45;;;;;;;12.15;5.58;;;;;;;17.98;84.45;100182.45;125817;1093;22767;-63
2021/08/23 01:21:20;;;;;;;12.95;5.98;;;;;;;17.97;84.48;100189.38;125849;1093;22924;-63
2021/08/23 01:23:53;;;;;;;13.05;5.38;;;;;;;17.95;84.35;100187.09;125835;1093;22767;-63
2021/08/23 01:26:29;;;;;;;12.87;5.00;;;;;;;17.94;84.79;100187.64;125757;1093;22746;-63
2021/08/23 01:29:08;;;;;;;12.60;5.07;;;;;;;17.94;84.63;100205.33;125816;1093;25983;-63
2021/08/23 01:31:50;;;;;;;15.03;6.00;;;;;;;17.93;84.64;100191.73;125877;1092;22781;-64
2021/08/23 01:34:22;;;;;;;12.60;5.50;;;;;;;17.91;84.47;100195.11;125752;1093;25860;-63
2021/08/23 01:36:56;;;;;;;13.90;6.90;;;;;;;17.91;84.78;100199.98;125825;1093;22771;-63
2021/08/23 01:39:28;;;;;;;18.80;6.93;;;;;;;17.90;84.70;100199.21;125726;1092;22927;-62
2021/08/23 01:42:07;;;;;;;15.88;6.23;;;;;;;17.89;84.72;100203.34;125701;1093;22773;-63
2021/08/23 01:44:42;;;;;;;14.28;6.13;;;;;;;17.90;85.07;100198.47;125809;1091;22825;-63
2021/08/23 01:47:29;;;;;;;13.73;5.97;;;;;;;17.90;84.69;100181.52;125693;1093;22800;-64
2021/08/23 01:50:03;;;;;;;12.23;5.55;;;;;;;17.89;84.77;100177.16;125653;1093;22885;-64
2021/08/23 01:52:37;;;;;;;12.03;5.60;;;;;;;17.89;85.00;100175.10;125759;1093;22800;-63
2021/08/23 01:55:10;;;;;;;12.90;6.67;;;;;;;17.89;85.09;100182.80;125800;1093;22767;-64
2021/08/23 01:57:42;;;;;;;14.97;6.50;;;;;;;17.86;85.17;100187.45;125758;1093;22793;-63
2021/08/23 02:00:22;;;;;;;13.03;5.65;;;;;;;17.81;85.25;100179.05;125690;1093;23206;-63
2021/08/23 02:02:54;;;;;;;14.63;5.73;;;;;;;17.78;84.96;100169.58;125737;1093;22953;-63
2021/08/23 02:05:31;;;;;;;15.45;5.45;;;;;;;17.78;85.03;100186.52;125665;1093;22775;-63
2021/08/23 02:08:06;;;;;;;14.85;6.43;;;;;;;17.80;85.37;100181.10;125759;1093;22767;-63
2021/08/23 02:10:38;;;;;;;12.75;6.10;;;;;;;17.79;84.82;100174.69;125760;1093;24505;-64
2021/08/23 02:13:14;;;;;;;13.85;6.00;;;;;;;17.81;84.93;100162.11;125802;1093;22793;-63
2021/08/23 02:15:45;;;;;;;14.10;5.60;;;;;;;17.81;84.94;100160.05;125987;1093;22794;-63
2021/08/23 02:18:20;;;;;;;15.80;6.75;;;;;;;17.79;85.34;100154.91;125722;1093;22800;-62
2021/08/23 02:20:56;;;;;;;14.33;6.65;;;;;;;17.78;85.46;100167.52;125902;1093;27665;-63
2021/08/23 02:23:28;;;;;;;12.78;6.85;;;;;;;17.77;85.32;100174.45;125708;1093;25874;-64
2021/08/23 02:26:01;;;;;;;14.63;6.20;;;;;;;17.78;85.29;100169.58;125787;1093;27185;-62
2021/08/23 02:28:36;;;;;;;16.05;6.35;;;;;;;17.76;85.49;100164.47;125808;1093;22803;-63
2021/08/23 02:31:07;;;;;;;14.43;6.65;;;;;;;17.75;85.60;100153.71;125693;1093;22808;-63
2021/08/23 02:33:39;;;;;;;14.37;6.47;;;;;;;17.76;85.53;100153.17;125693;1092;22779;-63
2021/08/23 02:36:10;;;;;;;13.97;6.33;;;;;;;17.75;85.45;100154.45;125682;1092;22797;-63
2021/08/23 02:38:42;;;;;;;17.20;6.68;;;;;;;17.74;85.67;100169.88;125684;1093;22778;-63
2021/08/23 02:41:20;;;;;;;14.73;6.60;;;;;;;17.75;85.81;100165.00;125773;1092;25951;-63
2021/08/23 02:43:52;;;;;;;13.67;6.07;;;;;;;17.74;85.75;100152.94;125709;1093;22800;-63
2021/08/23 02:46:26;;;;;;;14.43;6.93;;;;;;;17.74;85.75;100152.94;125781;1093;26449;-62
2021/08/23 02:48:58;;;;;;;15.33;6.73;;;;;;;17.74;85.96;100150.11;125746;1093;25874;-63
2021/08/23 02:51:34;;;;;;;15.40;6.70;;;;;;;17.73;85.68;100153.48;125704;1093;24432;-65
2021/08/23 02:54:05;;;;;;;16.90;6.40;;;;;;;17.73;85.75;100161.95;125807;1093;28426;-63
2021/08/23 02:56:37;;;;;;;15.13;6.00;;;;;;;17.72;85.71;100158.35;125771;1093;25191;-62
2021/08/23 02:59:08;;;;;;;13.75;6.55;;;;;;;17.73;86.04;100154.22;125732;1092;22794;-63
2021/08/23 03:01:43;;;;;;;16.97;6.20;;;;;;;17.74;85.99;100152.16;125758;1093;27413;-63
2021/08/23 03:04:20;;;;;;;16.47;6.80;;;;;;;17.74;85.72;100149.34;125769;1093;22800;-63
2021/08/23 03:06:54;;;;;;;17.10;7.18;;;;;;;17.74;85.89;100152.94;125860;1093;22852;-63
2021/08/23 03:09:26;;;;;;;14.03;6.05;;;;;;;17.73;86.11;100161.95;125733;1093;25884;-63
2021/08/23 03:11:59;;;;;;;14.07;6.50;;;;;;;17.72;86.28;100171.70;125831;1093;22815;-64
2021/08/23 03:14:38;;;;;;;13.97;6.60;;;;;;;17.71;86.23;100161.71;125815;1093;22858;-65
2021/08/23 03:17:10;;;;;;;19.27;7.53;;;;;;;17.71;86.13;100170.92;125740;1093;22803;-65
2021/08/23 03:19:42;;;;;;;14.30;5.87;;;;;;;17.71;86.13;100162.45;125719;1093;22850;-63
2021/08/23 03:22:13;;;;;;;15.40;6.60;;;;;;;17.71;86.63;100161.71;125759;1092;24470;-63
2021/08/23 03:24:46;;;;;;;16.87;6.77;;;;;;;17.72;86.31;100160.41;125741;1093;27366;-63
2021/08/23 03:27:19;;;;;;;14.25;7.25;;;;;;;17.72;86.56;100157.58;125859;1093;22770;-63
2021/08/23 03:29:53;;;;;;;14.73;6.40;;;;;;;17.73;86.66;100150.66;125800;1093;22947;-65
2021/08/23 03:32:25;;;;;;;15.10;7.77;;;;;;;17.73;86.64;100142.19;125742;1093;22797;-65
2021/08/23 03:35:02;;;;;;;14.60;6.87;;;;;;;17.73;86.38;100147.83;125738;1093;22796;-64
2021/08/23 03:37:35;;;;;;;19.23;7.00;;;;;;;17.74;86.29;100138.05;125831;1093;27371;-63
2021/08/23 03:40:15;;;;;;;15.53;7.53;;;;;;;17.75;86.22;100148.06;125891;1093;24470;-63
2021/08/23 03:42:48;;;;;;;18.17;7.73;;;;;;;17.74;86.37;100138.05;125804;1093;22789;-64
2021/08/23 03:45:23;;;;;;;15.45;7.50;;;;;;;17.72;86.57;100152.70;125761;1093;22770;-63
2021/08/23 03:47:58;;;;;;;17.20;7.45;;;;;;;17.71;86.38;100164.53;125721;1093;26251;-63
2021/08/23 03:50:30;;;;;;;16.00;7.15;;;;;;;17.69;86.55;100150.93;125685;1093;27220;-63
2021/08/23 03:53:02;;;;;;;17.33;8.20;;;;;;;17.69;86.55;100150.19;125708;1093;24485;-64
2021/08/23 03:55:35;;;;;;;21.83;7.63;;;;;;;17.68;86.67;100152.23;125864;1093;22793;-63
2021/08/23 03:58:07;;;;;;;15.27;7.17;;;;;;;17.68;86.74;100155.06;125772;1092;25989;-63
2021/08/23 04:00:38;;;;;;;16.53;7.50;;;;;;;17.67;86.67;100149.95;125710;1093;22770;-63
2021/08/23 04:03:12;;;;;;;15.70;7.60;;;;;;;17.69;86.56;100150.19;125715;1093;23011;-65
2021/08/23 04:05:45;;;;;;;14.88;7.68;;;;;;;17.69;86.83;100150.19;125738;1093;22793;-63
2021/08/23 04:08:16;;;;;;;14.43;7.63;;;;;;;17.68;87.09;100148.64;125860;1093;22844;-63
2021/08/23 04:10:50;;;;;;;13.13;7.63;;;;;;;17.68;86.77;100145.82;125788;1093;22780;-63
2021/08/23 04:13:21;;;;;;;12.77;5.93;;;;;;;17.68;86.94;100155.06;125991;1092;27651;-63
2021/08/23 04:15:55;;;;;;;15.45;7.05;;;;;;;17.68;87.05;100154.29;125812;1093;26637;-63
2021/08/23 04:18:35;;;;;;;17.13;7.87;;;;;;;17.67;87.01;100159.16;125890;1093;24190;-64
2021/08/23 04:21:06;;;;;;;15.67;8.40;;;;;;;17.67;87.10;100161.25;125762;1093;22770;-63
2021/08/23 04:23:40;;;;;;;18.93;7.73;;;;;;;17.67;86.88;100153.52;125736;1092;22811;-64
2021/08/23 04:26:14;;;;;;;16.90;8.00;;;;;;;17.69;87.21;100147.36;125824;1092;22770;-64
2021/08/23 04:28:50;;;;;;;18.23;7.93;;;;;;;17.70;87.33;100157.34;125911;1093;22877;-64
2021/08/23 04:31:24;;;;;;;17.85;8.43;;;;;;;17.71;87.30;100164.53;125776;1092;26285;-63
2021/08/23 04:33:56;;;;;;;15.85;8.35;;;;;;;17.72;87.18;100157.58;125912;1093;27183;-63
2021/08/23 04:36:28;;;;;;;20.33;8.63;;;;;;;17.72;87.37;100157.58;125762;1093;22798;-63
2021/08/23 04:39:07;;;;;;;23.28;9.53;;;;;;;17.74;87.51;100160.64;125796;1093;26230;-63
2021/08/23 04:41:40;;;;;;;18.17;8.90;;;;;;;17.73;87.21;100168.34;125871;1093;22796;-63
2021/08/23 04:44:15;;;;;;;14.90;8.03;;;;;;;17.74;87.54;100167.05;125869;1092;26286;-64
2021/08/23 04:46:49;;;;;;;17.13;8.48;;;;;;;17.74;87.63;100157.81;125805;1092;22815;-64
2021/08/23 04:49:24;;;;;;;17.83;9.23;;;;;;;17.76;87.77;100163.69;125738;1093;25983;-68
2021/08/23 04:52:00;;;;;;;15.30;8.67;;;;;;;17.76;87.55;100166.52;125890;1093;26255;-63
2021/08/23 04:54:31;;;;;;;16.95;8.70;;;;;;;17.78;87.36;100164.70;125915;1092;27220;-64
2021/08/23 04:57:08;;;;;;;17.20;7.43;;;;;;;17.81;87.56;100174.17;125760;1093;26245;-64
2021/08/23 04:59:55;;;;;;;17.40;9.70;;;;;;;17.82;87.40;100170.04;125803;1093;22828;-63
2021/08/23 05:02:28;;;;;;;17.50;8.30;;;;;;;17.82;87.59;100178.51;125726;1093;22748;-63
2021/08/23 05:04:59;;;;;;;16.50;8.10;;;;;;;17.83;87.72;100182.88;125933;1093;24214;-63
2021/08/23 05:07:33;;;;;;;15.70;7.23;;;;;;;17.84;87.64;100172.33;125954;1092;22797;-64
2021/08/23 05:10:06;;;;;;;19.70;8.90;;;;;;;17.85;87.83;100182.34;126017;1092;27176;-64
2021/08/23 05:12:49;;;;;;;14.50;8.50;;;;;;;17.86;87.50;100176.15;125748;1093;27192;-63
2021/08/23 05:15:23;;;;;;;18.87;8.43;;;;;;;17.87;87.60;100174.09;126684;1093;22860;-62
2021/08/23 05:17:59;;;;;;;16.23;9.47;;;;;;;17.87;87.90;100177.70;125793;1092;22797;-62
2021/08/23 05:20:34;;;;;;;18.05;9.10;;;;;;;17.87;88.06;100177.70;125921;1093;25315;-62
2021/08/23 05:23:06;;;;;;;19.85;9.05;;;;;;;17.88;87.79;100173.56;126387;1093;27214;-63
2021/08/23 05:25:37;;;;;;;18.33;8.77;;;;;;;17.90;87.88;100178.70;125867;1093;23002;-64
2021/08/23 05:28:12;;;;;;;19.50;9.60;;;;;;;17.90;88.03;100179.44;125870;1092;22773;-63
2021/08/23 05:30:47;;;;;;;19.20;9.20;;;;;;;17.90;88.08;100181.52;125976;1093;27268;-70
2021/08/23 05:33:23;;;;;;;23.33;9.95;;;;;;;17.88;88.06;100181.29;125854;1093;27189;-64
2021/08/23 05:35:56;;;;;;;17.03;10.10;;;;;;;17.88;88.17;100178.47;125822;1093;22771;-62
2021/08/23 05:38:27;;;;;;;19.95;10.85;;;;;;;17.88;88.14;100190.51;125948;1093;22770;-63
2021/08/23 05:40:59;;;;;;;16.83;9.60;;;;;;;17.89;88.36;100185.63;125694;1093;22778;-62
2021/08/23 05:43:32;;;;;;;18.10;10.30;;;;;;;17.89;88.03;100189.22;125689;1092;22797;-63
2021/08/23 05:46:04;;;;;;;18.67;9.53;;;;;;;17.88;88.13;100184.86;125820;1093;24471;-64
2021/08/23 05:48:36;;;;;;;14.40;6.60;;;;;;;17.84;87.99;100181.56;125708;1093;22784;-63
2021/08/23 05:51:10;;;;;;;13.00;6.83;;;;;;;17.79;88.22;100188.80;125854;1092;22829;-63
2021/08/23 05:53:43;;;;;;;17.63;7.50;;;;;;;17.76;88.28;100183.45;125760;1092;22781;-62
2021/08/23 05:56:15;;;;;;;12.30;5.85;;;;;;;17.72;88.37;100177.34;125506;1093;26491;-63
2021/08/23 05:58:47;;;;;;;10.77;5.13;;;;;;;17.69;88.30;100179.16;126013;1093;24596;-64
2021/08/23 06:01:19;;;;;;;11.10;6.00;;;;;;;17.65;88.47;100180.75;125727;1093;22770;-64
2021/08/23 06:03:51;;;;;;;13.90;7.00;;;;;;;17.62;88.74;100182.59;125958;1093;22774;-64
2021/08/23 06:06:27;;;;;;;11.60;5.35;;;;;;;17.59;88.74;100182.86;125710;1093;24471;-63
2021/08/23 06:09:00;;;;;;;13.95;6.78;;;;;;;17.56;88.90;100172.64;125964;1093;22773;-63
2021/08/23 06:11:32;;;;;;;12.50;5.63;;;;;;;17.53;88.43;100163.17;125720;1093;22767;-64
2021/08/23 06:14:06;;;;;;;12.50;6.27;;;;;;;17.55;88.96;100165.45;125748;1093;22767;-62
2021/08/23 06:16:38;;;;;;;11.45;6.35;;;;;;;17.53;88.56;100171.64;125779;1092;22790;-63
2021/08/23 06:19:17;;;;;;;13.25;6.93;;;;;;;17.51;88.86;100170.63;125976;1093;22775;-63
2021/08/23 06:21:51;;;;;;;13.57;6.00;;;;;;;17.48;88.85;100185.79;126103;1093;23011;-63
2021/08/23 06:24:30;;;;;;;10.75;4.85;;;;;;;17.45;88.49;100193.25;125716;1093;22796;-63
2021/08/23 06:27:06;;;;;;;12.20;5.27;;;;;;;17.41;88.92;100192.00;125769;1093;22774;-63
2021/08/23 06:29:41;;;;;;;13.20;6.23;;;;;;;17.36;88.60;100190.76;125767;1093;22775;-63
2021/08/23 06:32:15;;;;;;;13.78;6.33;;;;;;;17.34;88.91;100195.42;125804;1093;22770;-62
2021/08/23 06:34:47;;;;;;;12.77;6.37;;;;;;;17.30;88.78;100198.52;125821;1093;22770;-62
2021/08/23 06:37:19;;;;;;;15.05;6.90;;;;;;;17.27;89.12;100210.09;125821;1092;22746;-63
2021/08/23 06:39:52;;;;;;;13.50;7.27;;;;;;;17.24;89.03;100217.55;125844;1093;22794;-62
2021/08/23 06:42:26;;;;;;;14.70;7.50;;;;;;;17.22;88.89;100210.89;125807;1093;27204;-63
2021/08/23 06:44:57;;;;;;;17.63;8.80;;;;;;;17.20;89.06;100210.66;126192;1093;22793;-63
2021/08/23 06:47:32;;;;;;;19.80;8.55;;;;;;;17.18;89.14;100208.37;125778;1093;27183;-63
2021/08/23 06:50:09;;;;;;;16.87;8.07;;;;;;;17.19;89.39;100215.55;125762;1093;25877;-63
2021/08/23 06:52:44;;;;;;;18.90;8.27;;;;;;;17.19;89.29;100214.78;125866;1093;22773;-62
2021/08/23 06:55:17;;;;;;;16.70;9.07;;;;;;;17.18;89.47;100216.06;125942;1093;22861;-64
2021/08/23 06:57:49;;;;;;;18.20;8.95;;;;;;;17.16;89.40;100216.59;125793;1093;22782;-63
2021/08/23 07:00:20;;;;;;;15.73;7.60;;;;;;;17.19;89.31;100220.42;125683;1093;22771;-63
2021/08/23 07:02:52;;;;;;;17.40;9.37;;;;;;;17.20;89.45;100213.48;125832;1092;22794;-62
2021/08/23 07:05:25;;;;;;;18.85;8.65;;;;;;;17.22;89.48;100225.00;125930;1093;24472;-63
2021/08/23 07:07:57;;;;;;;19.17;8.50;;;;;;;17.23;89.62;100224.50;125916;1092;27398;-63
2021/08/23 07:10:33;;;;;;;19.38;9.15;;;;;;;17.22;89.30;100230.64;126019;1092;26248;-63
2021/08/23 07:13:05;;;;;;;18.43;8.83;;;;;;;17.20;89.49;100236.05;126083;1092;22755;-63
2021/08/23 07:15:37;;;;;;;17.35;8.75;;;;;;;17.22;89.49;100228.59;125991;1093;22825;-64
2021/08/23 07:18:12;;;;;;;21.73;8.90;;;;;;;17.23;89.53;100226.55;126026;1092;22802;-62
2021/08/23 07:20:45;;;;;;;18.23;8.93;;;;;;;17.26;89.41;100223.42;125877;1093;27183;-63
2021/08/23 07:23:21;;;;;;;18.83;9.23;;;;;;;17.28;89.63;100218.02;125926;1093;24432;-63
2021/08/23 07:25:55;;;;;;;16.03;8.50;;;;;;;17.32;89.40;100209.30;125948;1092;22754;-63
2021/08/23 07:28:31;;;;;;;18.55;8.30;;;;;;;17.36;90.02;100226.70;125933;1093;23965;-63
2021/08/23 07:31:05;;;;;;;18.70;8.17;;;;;;;17.37;89.72;100217.70;126067;1093;22775;-64
2021/08/23 07:33:37;;;;;;;17.03;8.33;;;;;;;17.40;89.81;100219.45;126118;1092;23289;-62
2021/08/23 07:36:10;;;;;;;17.90;8.43;;;;;;;17.45;89.50;100229.16;126095;1092;27403;-63
2021/08/23 07:38:41;;;;;;;17.08;7.80;;;;;;;17.48;89.70;100225.30;126112;1093;23227;-65
2021/08/23 07:41:17;;;;;;;16.43;7.48;;;;;;;17.51;89.47;100229.91;126042;1093;23180;-62
2021/08/23 07:43:48;;;;;;;17.13;8.15;;;;;;;17.55;89.67;100233.20;126000;1093;22796;-63
2021/08/23 07:46:20;;;;;;;15.30;6.93;;;;;;;17.61;89.84;100229.04;125973;1093;22914;-63
2021/08/23 07:48:53;;;;;;;16.33;6.80;;;;;;;17.70;90.25;100222.28;125907;1093;25877;-63
2021/08/23 07:51:24;;;;;;;14.20;6.33;;;;;;;17.78;89.63;100228.88;125886;1091;24461;-63
2021/08/23 07:53:56;;;;;;;14.87;6.33;;;;;;;17.82;89.56;100229.34;125865;1092;25874;-63
2021/08/23 07:56:29;;;;;;;14.67;6.83;;;;;;;17.84;89.23;100235.22;125962;1093;22760;-61
2021/08/23 07:59:04;;;;;;;15.10;6.50;;;;;;;17.89;89.74;100239.29;125979;1093;22819;-63
2021/08/23 08:01:35;;;;;;;11.90;5.05;;;;;;;17.92;89.24;100233.34;125880;1092;22781;-64
2021/08/23 08:04:08;;;;;;;14.10;5.70;;;;;;;17.97;89.55;100226.88;125910;1093;26241;-64
2021/08/23 08:06:44;;;;;;;14.50;6.13;;;;;;;18.04;89.18;100220.64;125826;1093;22770;-64
2021/08/23 08:09:19;;;;;;;14.50;6.20;;;;;;;18.08;89.11;100218.28;125949;1093;22767;-64
2021/08/23 08:11:51;;;;;;;13.45;6.45;;;;;;;18.14;89.15;100221.80;125899;1093;24471;-63
2021/08/23 08:14:26;;;;;;;14.63;5.40;;;;;;;18.21;88.89;100229.66;126123;1092;24432;-63
2021/08/23 08:17:00;;;;;;;14.93;5.40;;;;;;;18.30;89.52;100234.95;125875;1093;22773;-65
2021/08/23 08:19:34;;;;;;;13.03;5.10;;;;;;;18.38;88.75;100237.94;126050;1093;26245;-64
2021/08/23 08:22:07;;;;;;;11.73;4.63;;;;;;;18.45;89.26;100238.14;125869;1093;22773;-64
2021/08/23 08:24:39;;;;;;;11.70;4.70;;;;;;;18.53;88.22;100239.06;126011;1093;22770;-64
2021/08/23 08:27:11;;;;;;;10.18;3.80;;;;;;;18.62;88.60;100239.97;125772;1092;22800;-64
2021/08/23 08:29:42;;;;;;;8.57;3.60;;;;;;;18.66;87.60;100240.43;125933;1093;27194;-64
2021/08/23 08:32:14;;;;;;;10.68;3.18;;;;;;;18.67;87.28;100237.06;125906;1093;26292;-64
2021/08/23 08:34:47;;;;;;;6.67;2.47;;;;;;;18.67;87.59;100239.89;125914;1093;22841;-64
2021/08/23 08:37:19;;;;;;;8.10;2.50;;;;;;;18.68;87.56;100237.83;125888;1092;22781;-63
2021/08/23 08:39:54;;;;;;;7.13;2.70;;;;;;;18.67;86.80;100239.11;125942;1093;24460;-63
2021/08/23 08:42:26;;;;;;;7.10;2.37;;;;;;;18.67;87.22;100242.72;125841;1093;22751;-64
2021/08/23 08:44:58;;;;;;;7.05;2.13;;;;;;;18.71;87.16;100248.05;125878;1093;23192;-63
2021/08/23 08:47:31;;;;;;;8.95;2.75;;;;;;;18.73;86.85;100242.63;125725;1092;22764;-64
2021/08/23 08:50:05;;;;;;;6.38;2.00;;;;;;;18.75;87.05;100243.63;125936;1093;22796;-64
2021/08/23 08:52:39;;;;;;;6.48;2.10;;;;;;;18.80;87.01;100245.63;125859;1093;22877;-64
2021/08/23 08:55:12;;;;;;;5.53;1.80;;;;;;;18.85;86.75;100250.42;126031;1093;24439;-63
2021/08/23 08:57:46;;;;;;;5.98;1.65;;;;;;;18.90;86.51;100252.41;126069;1093;22797;-66
2021/08/23 09:00:21;;;;;;;4.98;1.60;;;;;;;18.92;85.97;100257.53;125916;1093;26286;-64
2021/08/23 09:03:00;;;;;;;4.88;1.43;;;;;;;18.94;86.09;100243.61;125902;1093;22878;-64
2021/08/23 09:05:48;;;;;;;4.58;1.40;;;;;;;19.00;85.93;100236.57;125965;1093;22805;-63
2021/08/23 09:08:28;;;;;;;5.70;1.50;;;;;;;19.12;85.83;100237.92;125881;1093;26292;-64
2021/08/23 09:11:13;;;;;;;4.25;1.40;;;;;;;19.21;84.55;100250.91;125815;1093;22791;-65
2021/08/23 09:14:03;;;;;;;3.65;1.00;;;;;;;19.25;84.84;100240.81;125960;1093;25855;-64
2021/08/23 09:16:38;;;;;;;5.43;1.25;;;;;;;19.34;84.33;100248.94;125950;1092;22758;-64
2021/08/23 09:19:23;;;;;;;2.93;1.03;;;;;;;19.34;83.46;100239.67;125941;1093;22814;-64
2021/08/23 09:22:07;;;;;;;3.03;1.00;;;;;;;19.32;83.73;100239.42;125793;1093;22821;-64
2021/08/23 09:24:41;;;;;;;2.87;1.00;;;;;;;19.29;83.38;100241.25;125937;1093;24552;-65
2021/08/23 09:27:20;;;;;;;2.58;0.93;;;;;;;19.27;83.45;100241.03;125828;1093;28808;-64
2021/08/23 09:29:59;;;;;;;4.93;1.30;;;;;;;19.29;83.66;100241.25;125871;1093;22770;-64
2021/08/23 09:32:33;;;;;;;5.45;1.15;;;;;;;19.33;83.53;100238.09;126085;1093;23021;-63
2021/08/23 09:35:05;;;;;;;5.30;1.60;;;;;;;19.43;83.70;100244.16;125890;1092;22774;-64
2021/08/23 09:37:50;;;;;;;3.25;1.15;;;;;;;19.52;83.78;100246.56;126036;1093;23002;-63
2021/08/23 09:40:32;;;;;;;3.18;1.10;;;;;;;19.62;82.89;100236.34;125876;1093;22775;-64
2021/08/23 09:43:11;;;;;;;4.40;1.20;;;;;;;19.71;83.09;100236.70;126082;1093;24592;-64
2021/08/23 09:45:47;;;;;;;5.45;1.23;;;;;;;19.78;82.22;100238.13;125913;1092;22837;-65
2021/08/23 09:48:24;;;;;;;3.08;0.80;;;;;;;19.81;81.74;100232.13;125890;1093;22877;-64
2021/08/23 09:50:58;;;;;;;5.13;0.93;;;;;;;19.81;81.40;100240.63;125895;1093;25874;-64
2021/08/23 09:53:35;;;;;;;5.53;1.30;;;;;;;19.87;82.08;100237.69;125979;1093;22727;-65
2021/08/23 09:56:11;;;;;;;3.85;1.00;;;;;;;20.03;82.72;100240.20;126037;1093;22861;-63
2021/08/23 09:58:47;;;;;;;3.53;1.00;;;;;;;20.17;81.36;100235.31;125906;1092;26283;-64
2021/08/23 10:01:20;;;;;;;4.40;1.08;;;;;;;20.23;81.57;100240.88;125925;1093;22797;-64
2021/08/23 10:03:54;;;;;;;4.98;1.10;;;;;;;20.28;80.16;100242.86;125949;1093;22796;-63
2021/08/23 10:06:27;;;;;;;3.80;1.20;;;;;;;20.27;79.60;100241.31;125880;1093;22780;-63
2021/08/23 10:08:59;;;;;;;3.65;1.13;;;;;;;20.29;80.26;100239.47;125929;1093;22793;-63
2021/08/23 10:11:32;;;;;;;3.30;1.00;;;;;;;20.36;79.66;100244.45;125894;1093;25291;-63
2021/08/23 10:14:06;;;;;;;5.03;1.00;;;;;;;20.47;80.24;100249.14;126002;1093;22822;-64
2021/08/23 10:16:39;;;;;;;4.80;1.10;;;;;;;20.56;79.19;100243.02;126080;1093;22857;-64
2021/08/23 10:19:21;;;;;;;4.40;0.93;;;;;;;20.67;78.81;100246.37;125892;1093;22931;-64
2021/08/23 10:21:53;;;;;;;3.23;0.90;;;;;;;20.73;78.72;100249.84;125855;1093;27204;-64
2021/08/23 10:24:28;;;;;;;5.20;1.00;;;;;;;20.78;78.08;100253.88;126200;1093;22794;-64
2021/08/23 10:27:01;;;;;;;3.50;0.97;;;;;;;20.75;77.58;100252.15;126051;1093;22767;-64
2021/08/23 10:29:42;;;;;;;7.57;1.20;;;;;;;20.74;77.24;100256.28;125858;1093;27669;-64
2021/08/23 10:32:15;;;;;;;3.38;1.00;;;;;;;20.71;76.85;100251.73;125915;1093;25874;-64
2021/08/23 10:34:53;;;;;;;6.30;0.95;;;;;;;20.65;75.72;100254.66;125830;1092;22849;-65
2021/08/23 10:37:31;;;;;;;3.60;1.15;;;;;;;20.59;75.65;100264.60;125795;1093;22835;-64
2021/08/23 10:40:04;;;;;;;3.38;1.00;;;;;;;20.59;76.80;100261.77;125821;1092;26513;-64
2021/08/23 10:42:42;;;;;;;4.18;1.10;;;;;;;20.63;76.47;100259.39;125908;1091;22893;-66
2021/08/23 10:45:17;;;;;;;6.05;1.15;;;;;;;20.60;75.49;100263.30;125892;1093;22752;-64
2021/08/23 10:47:49;;;;;;;5.68;1.18;;;;;;;20.51;75.45;100264.52;125920;1093;22829;-64
2021/08/23 10:50:28;;;;;;;5.00;1.28;;;;;;;20.46;75.41;100265.41;125776;1093;26299;-64
2021/08/23 10:52:59;;;;;;;4.70;1.10;;;;;;;20.41;74.79;100262.67;125801;1093;22798;-65
2021/08/23 10:55:37;;;;;;;2.90;1.00;;;;;;;20.37;74.91;100256.56;125873;1093;22770;-66
2021/08/23 10:58:09;;;;;;;4.60;1.00;;;;;;;20.36;75.22;100258.64;125804;1093;22770;-66
2021/08/23 11:00:45;;;;;;;3.83;1.10;;;;;;;20.36;75.33;100264.30;126096;1093;22826;-65
2021/08/23 11:03:29;;;;;;;2.68;1.08;;;;;;;20.40;74.94;100256.23;125820;1093;24140;-65
2021/08/23 11:06:06;;;;;;;3.95;1.00;;;;;;;20.46;74.71;100256.91;125910;1092;22805;-66
2021/08/23 11:08:42;;;;;;;2.95;1.10;;;;;;;20.50;74.64;100260.17;125842;1093;22791;-65
2021/08/23 11:11:23;;;;;;;4.85;1.58;;;;;;;20.56;74.96;100255.14;125922;1093;28561;-65
2021/08/23 11:13:55;;;;;;;3.63;1.20;;;;;;;20.61;73.71;100254.23;125985;1092;22770;-64
2021/08/23 11:16:31;;;;;;;4.05;1.13;;;;;;;20.62;73.62;100250.11;125828;1093;22879;-64
2021/08/23 11:19:06;;;;;;;3.28;1.00;;;;;;;20.59;72.38;100262.53;125980;1093;22770;-64
2021/08/23 11:21:38;;;;;;;3.58;1.30;;;;;;;20.60;73.45;100254.80;125931;1093;22771;-66
2021/08/23 11:24:10;;;;;;;4.03;1.20;;;;;;;20.61;73.32;100250.66;126184;1093;22770;-67
2021/08/23 11:27:00;;;;;;;4.18;1.10;;;;;;;20.66;73.17;100247.70;126049;1092;23388;-65
2021/08/23 11:29:39;;;;;;;3.33;1.05;;;;;;;20.66;72.96;100249.77;125776;1092;24474;-66
2021/08/23 11:32:11;;;;;;;5.28;1.25;;;;;;;20.70;73.27;100247.35;125902;1092;23392;-64
2021/08/23 11:34:51;;;;;;;3.60;1.00;;;;;;;20.77;73.02;100243.85;125975;1093;22749;-64
2021/08/23 11:37:29;;;;;;;4.30;1.20;;;;;;;20.85;72.47;100241.86;125956;1092;22931;-64
2021/08/23 11:40:10;;;;;;;4.88;1.38;;;;;;;20.85;72.01;100245.47;126019;1093;22773;-64
2021/08/23 11:42:39;;;;;;;;;;;;;;;20.84;72.14;100238.25;125973;1093;22819;-64
2021/08/23 11:45:20;;;;;;;3.28;1.05;;;;;;;20.87;72.28;100236.39;125827;1093;23266;-65